sensor_id;sensor_type;location;lat;lon;timestamp;P1;durP1;ratioP1;P2;durP2;ratioP2
19543;SDS011;9917;51.256;7.152;2023-05-16T00:01:05;10.43;;;7.63;;
19543;SDS011;9917;51.256;7.152;2023-05-16T00:03:31;9.23;;;7.22;;
19543;SDS011;9917;51.256;7.152;2023-05-16T00:05:56;9.60;;;7.03;;
19543;SDS011;9917;51.256;7.152;2023-05-16T00:08:22;9.00;;;7.25;;
19543;SDS011;9917;51.256;7.152;2023-05-16T00:10:48;9.52;;;6.82;;
19543;SDS011;9917;51.256;7.152;2023-05-16T00:13:20;8.18;;;6.32;;
19543;SDS011;9917;51.256;7.152;2023-05-16T00:15:45;7.97;;;5.70;;
19543;SDS011;9917;51.256;7.152;2023-05-16T00:18:11;10.13;;;6.25;;
19543;SDS011;9917;51.256;7.152;2023-05-16T00:20:37;8.05;;;6.07;;
19543;SDS011;9917;51.256;7.152;2023-05-16T00:23:03;10.63;;;6.57;;
19543;SDS011;9917;51.256;7.152;2023-05-16T00:25:28;7.97;;;6.05;;
19543;SDS011;9917;51.256;7.152;2023-05-16T00:27:54;8.93;;;5.80;;
19543;SDS011;9917;51.256;7.152;2023-05-16T00:30:21;7.35;;;5.30;;
19543;SDS011;9917;51.256;7.152;2023-05-16T00:32:47;7.55;;;5.28;;
19543;SDS011;9917;51.256;7.152;2023-05-16T00:35:13;9.20;;;6.30;;
19543;SDS011;9917;51.256;7.152;2023-05-16T00:37:38;10.02;;;7.90;;
19543;SDS011;9917;51.256;7.152;2023-05-16T00:40:04;11.25;;;8.10;;
19543;SDS011;9917;51.256;7.152;2023-05-16T00:42:31;11.20;;;8.35;;
19543;SDS011;9917;51.256;7.152;2023-05-16T00:44:57;10.48;;;7.90;;
19543;SDS011;9917;51.256;7.152;2023-05-16T00:47:24;8.90;;;7.18;;
19543;SDS011;9917;51.256;7.152;2023-05-16T00:49:50;10.77;;;8.13;;
19543;SDS011;9917;51.256;7.152;2023-05-16T00:52:15;9.00;;;7.22;;
19543;SDS011;9917;51.256;7.152;2023-05-16T00:54:41;11.02;;;7.95;;
19543;SDS011;9917;51.256;7.152;2023-05-16T00:57:07;8.82;;;6.50;;
19543;SDS011;9917;51.256;7.152;2023-05-16T00:59:33;7.53;;;5.55;;
19543;SDS011;9917;51.256;7.152;2023-05-16T01:01:59;6.28;;;4.93;;
19543;SDS011;9917;51.256;7.152;2023-05-16T01:04:26;6.03;;;4.80;;
19543;SDS011;9917;51.256;7.152;2023-05-16T01:06:53;5.55;;;4.47;;
19543;SDS011;9917;51.256;7.152;2023-05-16T01:09:20;6.43;;;5.32;;
19543;SDS011;9917;51.256;7.152;2023-05-16T01:11:46;5.97;;;4.63;;
19543;SDS011;9917;51.256;7.152;2023-05-16T01:14:16;5.72;;;4.93;;
19543;SDS011;9917;51.256;7.152;2023-05-16T01:16:57;6.97;;;5.40;;
19543;SDS011;9917;51.256;7.152;2023-05-16T01:19:37;5.75;;;5.07;;
19543;SDS011;9917;51.256;7.152;2023-05-16T01:22:26;5.30;;;4.65;;
19543;SDS011;9917;51.256;7.152;2023-05-16T01:25:01;6.18;;;4.90;;
19543;SDS011;9917;51.256;7.152;2023-05-16T01:27:36;6.57;;;4.68;;
19543;SDS011;9917;51.256;7.152;2023-05-16T01:30:11;5.75;;;4.80;;
19543;SDS011;9917;51.256;7.152;2023-05-16T01:32:46;5.53;;;4.10;;
19543;SDS011;9917;51.256;7.152;2023-05-16T01:35:17;5.50;;;4.70;;
19543;SDS011;9917;51.256;7.152;2023-05-16T01:37:44;7.53;;;4.63;;
19543;SDS011;9917;51.256;7.152;2023-05-16T01:40:14;5.85;;;3.80;;
19543;SDS011;9917;51.256;7.152;2023-05-16T01:42:46;3.15;;;2.80;;
19543;SDS011;9917;51.256;7.152;2023-05-16T01:45:17;2.50;;;2.30;;
19543;SDS011;9917;51.256;7.152;2023-05-16T01:48:02;3.92;;;2.60;;
19543;SDS011;9917;51.256;7.152;2023-05-16T01:50:31;2.92;;;2.47;;
19543;SDS011;9917;51.256;7.152;2023-05-16T01:53:02;4.78;;;2.97;;
19543;SDS011;9917;51.256;7.152;2023-05-16T01:55:34;3.40;;;2.50;;
19543;SDS011;9917;51.256;7.152;2023-05-16T01:58:07;5.32;;;2.80;;
19543;SDS011;9917;51.256;7.152;2023-05-16T02:00:38;4.63;;;3.05;;
19543;SDS011;9917;51.256;7.152;2023-05-16T02:03:04;3.85;;;3.08;;
19543;SDS011;9917;51.256;7.152;2023-05-16T02:05:36;4.03;;;3.35;;
19543;SDS011;9917;51.256;7.152;2023-05-16T02:08:02;5.22;;;3.70;;
19543;SDS011;9917;51.256;7.152;2023-05-16T02:10:28;5.43;;;3.83;;
19543;SDS011;9917;51.256;7.152;2023-05-16T02:12:54;5.75;;;3.78;;
19543;SDS011;9917;51.256;7.152;2023-05-16T02:15:21;7.63;;;3.17;;
19543;SDS011;9917;51.256;7.152;2023-05-16T02:17:47;5.95;;;3.05;;
19543;SDS011;9917;51.256;7.152;2023-05-16T02:20:13;4.28;;;2.40;;
19543;SDS011;9917;51.256;7.152;2023-05-16T02:22:38;5.10;;;1.90;;
19543;SDS011;9917;51.256;7.152;2023-05-16T02:25:05;2.65;;;1.63;;
19543;SDS011;9917;51.256;7.152;2023-05-16T02:27:32;4.82;;;1.95;;
19543;SDS011;9917;51.256;7.152;2023-05-16T02:29:58;5.88;;;1.92;;
19543;SDS011;9917;51.256;7.152;2023-05-16T02:32:25;5.10;;;2.00;;
19543;SDS011;9917;51.256;7.152;2023-05-16T02:34:51;5.30;;;1.80;;
19543;SDS011;9917;51.256;7.152;2023-05-16T02:37:16;3.83;;;2.00;;
19543;SDS011;9917;51.256;7.152;2023-05-16T02:39:42;8.55;;;2.10;;
19543;SDS011;9917;51.256;7.152;2023-05-16T02:42:08;5.03;;;1.70;;
19543;SDS011;9917;51.256;7.152;2023-05-16T02:44:33;4.18;;;1.90;;
19543;SDS011;9917;51.256;7.152;2023-05-16T02:46:59;9.18;;;2.30;;
19543;SDS011;9917;51.256;7.152;2023-05-16T02:49:26;5.45;;;1.90;;
19543;SDS011;9917;51.256;7.152;2023-05-16T02:51:52;5.43;;;2.08;;
19543;SDS011;9917;51.256;7.152;2023-05-16T02:54:17;6.35;;;2.30;;
19543;SDS011;9917;51.256;7.152;2023-05-16T02:56:43;7.43;;;2.25;;
19543;SDS011;9917;51.256;7.152;2023-05-16T02:59:09;9.10;;;2.17;;
19543;SDS011;9917;51.256;7.152;2023-05-16T03:01:35;6.82;;;1.80;;
19543;SDS011;9917;51.256;7.152;2023-05-16T03:04:01;8.80;;;1.90;;
19543;SDS011;9917;51.256;7.152;2023-05-16T03:06:31;13.38;;;2.42;;
19543;SDS011;9917;51.256;7.152;2023-05-16T03:08:57;6.10;;;2.10;;
19543;SDS011;9917;51.256;7.152;2023-05-16T03:11:22;9.55;;;2.08;;
19543;SDS011;9917;51.256;7.152;2023-05-16T03:13:48;10.18;;;2.10;;
19543;SDS011;9917;51.256;7.152;2023-05-16T03:16:14;8.15;;;2.55;;
19543;SDS011;9917;51.256;7.152;2023-05-16T03:18:49;9.63;;;2.95;;
19543;SDS011;9917;51.256;7.152;2023-05-16T03:21:15;10.80;;;2.50;;
19543;SDS011;9917;51.256;7.152;2023-05-16T03:23:43;9.60;;;2.95;;
19543;SDS011;9917;51.256;7.152;2023-05-16T03:26:09;8.15;;;2.63;;
19543;SDS011;9917;51.256;7.152;2023-05-16T03:28:35;9.70;;;2.53;;
19543;SDS011;9917;51.256;7.152;2023-05-16T03:31:01;8.57;;;3.75;;
19543;SDS011;9917;51.256;7.152;2023-05-16T03:33:27;8.32;;;2.88;;
19543;SDS011;9917;51.256;7.152;2023-05-16T03:35:52;9.65;;;3.08;;
19543;SDS011;9917;51.256;7.152;2023-05-16T03:38:21;7.68;;;3.22;;
19543;SDS011;9917;51.256;7.152;2023-05-16T03:40:48;9.60;;;3.53;;
19543;SDS011;9917;51.256;7.152;2023-05-16T03:43:14;9.23;;;3.50;;
19543;SDS011;9917;51.256;7.152;2023-05-16T03:45:40;10.45;;;4.00;;
19543;SDS011;9917;51.256;7.152;2023-05-16T03:48:05;11.20;;;4.47;;
19543;SDS011;9917;51.256;7.152;2023-05-16T03:50:33;11.57;;;5.03;;
19543;SDS011;9917;51.256;7.152;2023-05-16T03:52:58;16.48;;;5.88;;
19543;SDS011;9917;51.256;7.152;2023-05-16T03:55:24;8.75;;;5.18;;
19543;SDS011;9917;51.256;7.152;2023-05-16T03:57:51;11.23;;;4.93;;
19543;SDS011;9917;51.256;7.152;2023-05-16T04:00:17;8.48;;;5.18;;
19543;SDS011;9917;51.256;7.152;2023-05-16T04:02:43;15.73;;;5.43;;
19543;SDS011;9917;51.256;7.152;2023-05-16T04:05:09;10.82;;;4.43;;
19543;SDS011;9917;51.256;7.152;2023-05-16T04:07:35;12.00;;;4.10;;
19543;SDS011;9917;51.256;7.152;2023-05-16T04:10:01;8.68;;;3.67;;
19543;SDS011;9917;51.256;7.152;2023-05-16T04:12:27;9.48;;;3.90;;
19543;SDS011;9917;51.256;7.152;2023-05-16T04:14:54;12.07;;;3.38;;
19543;SDS011;9917;51.256;7.152;2023-05-16T04:17:20;10.27;;;3.67;;
19543;SDS011;9917;51.256;7.152;2023-05-16T04:19:46;13.98;;;3.70;;
19543;SDS011;9917;51.256;7.152;2023-05-16T04:22:11;10.05;;;2.97;;
19543;SDS011;9917;51.256;7.152;2023-05-16T04:24:37;10.38;;;3.05;;
19543;SDS011;9917;51.256;7.152;2023-05-16T04:27:03;9.82;;;2.75;;
19543;SDS011;9917;51.256;7.152;2023-05-16T04:29:31;10.60;;;2.85;;
19543;SDS011;9917;51.256;7.152;2023-05-16T04:31:58;10.23;;;2.78;;
19543;SDS011;9917;51.256;7.152;2023-05-16T04:34:24;10.80;;;2.80;;
19543;SDS011;9917;51.256;7.152;2023-05-16T04:36:50;10.25;;;2.70;;
19543;SDS011;9917;51.256;7.152;2023-05-16T04:39:15;11.40;;;2.92;;
19543;SDS011;9917;51.256;7.152;2023-05-16T04:41:41;11.68;;;2.88;;
19543;SDS011;9917;51.256;7.152;2023-05-16T04:44:07;13.65;;;3.45;;
19543;SDS011;9917;51.256;7.152;2023-05-16T04:46:32;9.57;;;2.90;;
19543;SDS011;9917;51.256;7.152;2023-05-16T04:48:59;11.32;;;3.00;;
19543;SDS011;9917;51.256;7.152;2023-05-16T04:51:25;10.32;;;3.17;;
19543;SDS011;9917;51.256;7.152;2023-05-16T04:53:51;7.80;;;2.70;;
19543;SDS011;9917;51.256;7.152;2023-05-16T04:56:19;11.20;;;3.15;;
19543;SDS011;9917;51.256;7.152;2023-05-16T04:58:45;10.00;;;3.42;;
19543;SDS011;9917;51.256;7.152;2023-05-16T05:01:11;14.63;;;3.63;;
19543;SDS011;9917;51.256;7.152;2023-05-16T05:03:36;10.63;;;3.40;;
19543;SDS011;9917;51.256;7.152;2023-05-16T05:06:04;10.85;;;3.63;;
19543;SDS011;9917;51.256;7.152;2023-05-16T05:08:30;6.97;;;3.67;;
19543;SDS011;9917;51.256;7.152;2023-05-16T05:10:55;12.32;;;3.47;;
19543;SDS011;9917;51.256;7.152;2023-05-16T05:13:21;10.73;;;3.20;;
19543;SDS011;9917;51.256;7.152;2023-05-16T05:15:47;9.10;;;3.25;;
19543;SDS011;9917;51.256;7.152;2023-05-16T05:18:12;10.23;;;3.60;;
19543;SDS011;9917;51.256;7.152;2023-05-16T05:20:38;9.25;;;3.13;;
19543;SDS011;9917;51.256;7.152;2023-05-16T05:23:05;9.20;;;3.92;;
19543;SDS011;9917;51.256;7.152;2023-05-16T05:25:31;13.75;;;3.60;;
19543;SDS011;9917;51.256;7.152;2023-05-16T05:27:56;11.30;;;3.67;;
19543;SDS011;9917;51.256;7.152;2023-05-16T05:30:22;6.28;;;3.22;;
19543;SDS011;9917;51.256;7.152;2023-05-16T05:32:48;10.77;;;4.28;;
19543;SDS011;9917;51.256;7.152;2023-05-16T05:35:14;13.38;;;4.03;;
19543;SDS011;9917;51.256;7.152;2023-05-16T05:37:39;15.25;;;4.30;;
19543;SDS011;9917;51.256;7.152;2023-05-16T05:40:07;9.68;;;3.17;;
19543;SDS011;9917;51.256;7.152;2023-05-16T05:42:33;9.68;;;3.35;;
19543;SDS011;9917;51.256;7.152;2023-05-16T05:44:59;10.88;;;3.10;;
19543;SDS011;9917;51.256;7.152;2023-05-16T05:47:25;10.75;;;3.60;;
19543;SDS011;9917;51.256;7.152;2023-05-16T05:49:51;8.40;;;3.05;;
19543;SDS011;9917;51.256;7.152;2023-05-16T05:52:16;12.77;;;3.35;;
19543;SDS011;9917;51.256;7.152;2023-05-16T05:54:42;7.40;;;2.65;;
19543;SDS011;9917;51.256;7.152;2023-05-16T05:57:09;14.43;;;3.13;;
19543;SDS011;9917;51.256;7.152;2023-05-16T05:59:35;12.73;;;2.60;;
19543;SDS011;9917;51.256;7.152;2023-05-16T06:02:00;11.10;;;3.05;;
19543;SDS011;9917;51.256;7.152;2023-05-16T06:04:26;8.60;;;2.65;;
19543;SDS011;9917;51.256;7.152;2023-05-16T06:06:52;10.10;;;2.63;;
19543;SDS011;9917;51.256;7.152;2023-05-16T06:09:18;9.20;;;2.50;;
19543;SDS011;9917;51.256;7.152;2023-05-16T06:11:45;10.85;;;2.78;;
19543;SDS011;9917;51.256;7.152;2023-05-16T06:14:12;9.02;;;2.50;;
19543;SDS011;9917;51.256;7.152;2023-05-16T06:16:38;8.45;;;2.30;;
19543;SDS011;9917;51.256;7.152;2023-05-16T06:19:08;10.68;;;2.55;;
19543;SDS011;9917;51.256;7.152;2023-05-16T06:21:37;6.30;;;2.10;;
19543;SDS011;9917;51.256;7.152;2023-05-16T06:24:03;5.75;;;2.00;;
19543;SDS011;9917;51.256;7.152;2023-05-16T06:26:29;8.63;;;2.45;;
19543;SDS011;9917;51.256;7.152;2023-05-16T06:29:04;7.28;;;2.25;;
19543;SDS011;9917;51.256;7.152;2023-05-16T06:31:32;9.95;;;2.40;;
19543;SDS011;9917;51.256;7.152;2023-05-16T06:33:58;8.05;;;2.08;;
19543;SDS011;9917;51.256;7.152;2023-05-16T06:36:23;8.93;;;2.13;;
19543;SDS011;9917;51.256;7.152;2023-05-16T06:38:49;9.85;;;2.10;;
19543;SDS011;9917;51.256;7.152;2023-05-16T06:41:15;6.97;;;1.52;;
19543;SDS011;9917;51.256;7.152;2023-05-16T06:43:41;7.03;;;1.75;;
19543;SDS011;9917;51.256;7.152;2023-05-16T06:46:06;10.50;;;2.25;;
19543;SDS011;9917;51.256;7.152;2023-05-16T06:48:37;12.20;;;2.22;;
19543;SDS011;9917;51.256;7.152;2023-05-16T06:51:06;11.30;;;2.10;;
19543;SDS011;9917;51.256;7.152;2023-05-16T06:53:33;11.43;;;2.30;;
19543;SDS011;9917;51.256;7.152;2023-05-16T06:56:00;14.20;;;2.08;;
19543;SDS011;9917;51.256;7.152;2023-05-16T06:58:29;4.93;;;1.50;;
19543;SDS011;9917;51.256;7.152;2023-05-16T07:00:57;9.77;;;1.80;;
19543;SDS011;9917;51.256;7.152;2023-05-16T07:03:42;6.68;;;1.63;;
19543;SDS011;9917;51.256;7.152;2023-05-16T07:06:10;12.55;;;2.10;;
19543;SDS011;9917;51.256;7.152;2023-05-16T07:08:36;14.55;;;2.75;;
19543;SDS011;9917;51.256;7.152;2023-05-16T07:11:02;7.70;;;1.77;;
19543;SDS011;9917;51.256;7.152;2023-05-16T07:13:27;11.18;;;1.90;;
19543;SDS011;9917;51.256;7.152;2023-05-16T07:15:53;7.75;;;1.70;;
19543;SDS011;9917;51.256;7.152;2023-05-16T07:18:28;6.53;;;1.50;;
19543;SDS011;9917;51.256;7.152;2023-05-16T07:21:01;8.07;;;1.38;;
19543;SDS011;9917;51.256;7.152;2023-05-16T07:23:29;10.00;;;1.63;;
19543;SDS011;9917;51.256;7.152;2023-05-16T07:25:55;7.82;;;1.23;;
19543;SDS011;9917;51.256;7.152;2023-05-16T07:28:21;11.32;;;2.33;;
19543;SDS011;9917;51.256;7.152;2023-05-16T07:30:46;7.47;;;2.00;;
19543;SDS011;9917;51.256;7.152;2023-05-16T07:33:13;7.15;;;2.42;;
19543;SDS011;9917;51.256;7.152;2023-05-16T07:35:38;9.05;;;2.17;;
19543;SDS011;9917;51.256;7.152;2023-05-16T07:38:06;6.55;;;1.63;;
19543;SDS011;9917;51.256;7.152;2023-05-16T07:40:31;6.47;;;1.98;;
19543;SDS011;9917;51.256;7.152;2023-05-16T07:42:57;6.75;;;1.77;;
19543;SDS011;9917;51.256;7.152;2023-05-16T07:45:23;8.35;;;1.55;;
19543;SDS011;9917;51.256;7.152;2023-05-16T07:47:49;5.82;;;1.60;;
19543;SDS011;9917;51.256;7.152;2023-05-16T07:50:15;5.47;;;1.30;;
19543;SDS011;9917;51.256;7.152;2023-05-16T07:52:40;12.73;;;1.60;;
19543;SDS011;9917;51.256;7.152;2023-05-16T07:55:08;5.65;;;1.50;;
19543;SDS011;9917;51.256;7.152;2023-05-16T07:57:34;6.32;;;1.60;;
19543;SDS011;9917;51.256;7.152;2023-05-16T08:00:00;4.43;;;1.42;;
19543;SDS011;9917;51.256;7.152;2023-05-16T08:02:26;6.85;;;1.67;;
19543;SDS011;9917;51.256;7.152;2023-05-16T08:04:52;6.05;;;1.58;;
19543;SDS011;9917;51.256;7.152;2023-05-16T08:07:17;5.30;;;1.40;;
19543;SDS011;9917;51.256;7.152;2023-05-16T08:09:43;10.38;;;1.75;;
19543;SDS011;9917;51.256;7.152;2023-05-16T08:12:11;6.80;;;1.70;;
19543;SDS011;9917;51.256;7.152;2023-05-16T08:14:36;8.05;;;1.70;;
19543;SDS011;9917;51.256;7.152;2023-05-16T08:17:02;10.70;;;1.73;;
19543;SDS011;9917;51.256;7.152;2023-05-16T08:19:28;8.07;;;1.80;;
19543;SDS011;9917;51.256;7.152;2023-05-16T08:22:06;6.65;;;1.50;;
19543;SDS011;9917;51.256;7.152;2023-05-16T08:24:36;6.63;;;1.08;;
19543;SDS011;9917;51.256;7.152;2023-05-16T08:27:02;3.72;;;1.00;;
19543;SDS011;9917;51.256;7.152;2023-05-16T08:29:30;3.00;;;0.80;;
19543;SDS011;9917;51.256;7.152;2023-05-16T08:31:55;5.82;;;1.10;;
19543;SDS011;9917;51.256;7.152;2023-05-16T08:34:21;4.35;;;0.98;;
19543;SDS011;9917;51.256;7.152;2023-05-16T08:36:47;4.30;;;1.25;;
19543;SDS011;9917;51.256;7.152;2023-05-16T08:39:13;2.80;;;0.70;;
19543;SDS011;9917;51.256;7.152;2023-05-16T08:41:38;2.30;;;0.50;;
19543;SDS011;9917;51.256;7.152;2023-05-16T08:44:05;8.00;;;0.85;;
19543;SDS011;9917;51.256;7.152;2023-05-16T08:46:32;5.35;;;0.90;;
19543;SDS011;9917;51.256;7.152;2023-05-16T08:48:58;4.35;;;0.73;;
19543;SDS011;9917;51.256;7.152;2023-05-16T08:51:24;6.32;;;0.70;;
19543;SDS011;9917;51.256;7.152;2023-05-16T08:53:53;11.57;;;0.93;;
19543;SDS011;9917;51.256;7.152;2023-05-16T08:56:24;4.93;;;0.60;;
19543;SDS011;9917;51.256;7.152;2023-05-16T08:58:50;4.70;;;0.70;;
19543;SDS011;9917;51.256;7.152;2023-05-16T09:01:16;3.58;;;0.75;;
19543;SDS011;9917;51.256;7.152;2023-05-16T09:03:44;4.38;;;0.98;;
19543;SDS011;9917;51.256;7.152;2023-05-16T09:06:10;5.55;;;0.80;;
19543;SDS011;9917;51.256;7.152;2023-05-16T09:08:36;6.80;;;0.93;;
19543;SDS011;9917;51.256;7.152;2023-05-16T09:11:02;4.22;;;0.80;;
19543;SDS011;9917;51.256;7.152;2023-05-16T09:13:28;4.78;;;0.80;;
19543;SDS011;9917;51.256;7.152;2023-05-16T09:16:07;4.65;;;1.25;;
19543;SDS011;9917;51.256;7.152;2023-05-16T09:18:33;4.00;;;1.00;;
19543;SDS011;9917;51.256;7.152;2023-05-16T09:21:00;3.30;;;0.73;;
19543;SDS011;9917;51.256;7.152;2023-05-16T09:23:26;4.47;;;0.60;;
19543;SDS011;9917;51.256;7.152;2023-05-16T09:25:52;3.97;;;0.40;;
19543;SDS011;9917;51.256;7.152;2023-05-16T09:28:18;2.30;;;0.70;;
19543;SDS011;9917;51.256;7.152;2023-05-16T09:30:45;3.38;;;0.50;;
19543;SDS011;9917;51.256;7.152;2023-05-16T09:33:11;2.75;;;0.55;;
19543;SDS011;9917;51.256;7.152;2023-05-16T09:35:37;4.68;;;1.50;;
19543;SDS011;9917;51.256;7.152;2023-05-16T09:38:04;6.25;;;3.50;;
19543;SDS011;9917;51.256;7.152;2023-05-16T09:40:30;4.03;;;0.80;;
19543;SDS011;9917;51.256;7.152;2023-05-16T09:43:05;6.50;;;0.95;;
19543;SDS011;9917;51.256;7.152;2023-05-16T09:45:31;5.15;;;1.33;;
19543;SDS011;9917;51.256;7.152;2023-05-16T09:48:00;2.97;;;1.02;;
19543;SDS011;9917;51.256;7.152;2023-05-16T09:50:34;4.43;;;1.35;;
19543;SDS011;9917;51.256;7.152;2023-05-16T09:53:00;4.65;;;0.73;;
19543;SDS011;9917;51.256;7.152;2023-05-16T09:55:28;4.43;;;1.63;;
19543;SDS011;9917;51.256;7.152;2023-05-16T09:57:54;4.97;;;2.28;;
19543;SDS011;9917;51.256;7.152;2023-05-16T10:00:20;7.10;;;1.92;;
19543;SDS011;9917;51.256;7.152;2023-05-16T10:02:53;5.72;;;1.40;;
19543;SDS011;9917;51.256;7.152;2023-05-16T10:05:21;5.88;;;1.20;;
19543;SDS011;9917;51.256;7.152;2023-05-16T10:07:47;8.80;;;4.47;;
19543;SDS011;9917;51.256;7.152;2023-05-16T10:10:15;5.50;;;1.20;;
19543;SDS011;9917;51.256;7.152;2023-05-16T10:12:42;7.25;;;3.42;;
19543;SDS011;9917;51.256;7.152;2023-05-16T10:15:09;3.17;;;1.60;;
19543;SDS011;9917;51.256;7.152;2023-05-16T10:17:35;4.53;;;2.38;;
19543;SDS011;9917;51.256;7.152;2023-05-16T10:20:04;3.88;;;1.50;;
19543;SDS011;9917;51.256;7.152;2023-05-16T10:22:34;3.63;;;1.02;;
19543;SDS011;9917;51.256;7.152;2023-05-16T10:25:03;3.40;;;0.50;;
19543;SDS011;9917;51.256;7.152;2023-05-16T10:27:33;2.05;;;0.60;;
19543;SDS011;9917;51.256;7.152;2023-05-16T10:30:01;6.72;;;1.27;;
19543;SDS011;9917;51.256;7.152;2023-05-16T10:32:27;7.00;;;1.33;;
19543;SDS011;9917;51.256;7.152;2023-05-16T10:34:53;5.85;;;1.52;;
19543;SDS011;9917;51.256;7.152;2023-05-16T10:37:19;4.57;;;1.45;;
19543;SDS011;9917;51.256;7.152;2023-05-16T10:39:45;3.15;;;0.63;;
19543;SDS011;9917;51.256;7.152;2023-05-16T10:42:11;2.05;;;0.40;;
19543;SDS011;9917;51.256;7.152;2023-05-16T10:44:37;2.83;;;0.45;;
19543;SDS011;9917;51.256;7.152;2023-05-16T10:47:04;4.43;;;0.50;;
19543;SDS011;9917;51.256;7.152;2023-05-16T10:49:30;2.35;;;0.50;;
19543;SDS011;9917;51.256;7.152;2023-05-16T10:52:04;3.17;;;0.52;;
19543;SDS011;9917;51.256;7.152;2023-05-16T10:54:35;3.35;;;0.65;;
19543;SDS011;9917;51.256;7.152;2023-05-16T10:57:08;3.38;;;0.70;;
19543;SDS011;9917;51.256;7.152;2023-05-16T10:59:39;2.97;;;0.52;;
19543;SDS011;9917;51.256;7.152;2023-05-16T11:02:19;5.93;;;0.95;;
19543;SDS011;9917;51.256;7.152;2023-05-16T11:04:57;4.03;;;0.45;;
19543;SDS011;9917;51.256;7.152;2023-05-16T11:07:33;2.28;;;0.50;;
19543;SDS011;9917;51.256;7.152;2023-05-16T11:10:04;4.72;;;0.60;;
19543;SDS011;9917;51.256;7.152;2023-05-16T11:12:41;5.75;;;0.60;;
19543;SDS011;9917;51.256;7.152;2023-05-16T11:15:18;2.08;;;0.50;;
19543;SDS011;9917;51.256;7.152;2023-05-16T11:17:50;4.97;;;0.82;;
19543;SDS011;9917;51.256;7.152;2023-05-16T11:20:28;2.03;;;0.30;;
19543;SDS011;9917;51.256;7.152;2023-05-16T11:25:43;5.25;;;0.65;;
19543;SDS011;9917;51.256;7.152;2023-05-16T11:28:11;3.10;;;0.60;;
19543;SDS011;9917;51.256;7.152;2023-05-16T11:30:42;4.03;;;0.60;;
19543;SDS011;9917;51.256;7.152;2023-05-16T11:33:11;2.22;;;0.43;;
19543;SDS011;9917;51.256;7.152;2023-05-16T11:35:37;4.40;;;0.77;;
19543;SDS011;9917;51.256;7.152;2023-05-16T11:38:03;3.00;;;0.30;;
19543;SDS011;9917;51.256;7.152;2023-05-16T11:40:29;4.30;;;0.77;;
19543;SDS011;9917;51.256;7.152;2023-05-16T11:42:58;3.38;;;0.43;;
19543;SDS011;9917;51.256;7.152;2023-05-16T11:45:24;2.33;;;0.35;;
19543;SDS011;9917;51.256;7.152;2023-05-16T11:47:50;3.45;;;0.70;;
19543;SDS011;9917;51.256;7.152;2023-05-16T11:50:18;5.03;;;1.80;;
19543;SDS011;9917;51.256;7.152;2023-05-16T11:52:45;4.20;;;1.88;;
19543;SDS011;9917;51.256;7.152;2023-05-16T11:55:12;3.63;;;0.77;;
19543;SDS011;9917;51.256;7.152;2023-05-16T11:57:40;3.03;;;0.70;;
19543;SDS011;9917;51.256;7.152;2023-05-16T12:00:09;3.03;;;0.57;;
19543;SDS011;9917;51.256;7.152;2023-05-16T12:02:44;2.90;;;0.28;;
19543;SDS011;9917;51.256;7.152;2023-05-16T12:05:10;5.18;;;1.85;;
19543;SDS011;9917;51.256;7.152;2023-05-16T12:07:38;4.50;;;1.10;;
19543;SDS011;9917;51.256;7.152;2023-05-16T12:10:04;3.95;;;1.30;;
19543;SDS011;9917;51.256;7.152;2023-05-16T12:12:30;4.05;;;0.77;;
19543;SDS011;9917;51.256;7.152;2023-05-16T12:14:56;4.03;;;0.65;;
19543;SDS011;9917;51.256;7.152;2023-05-16T12:17:22;3.40;;;0.68;;
19543;SDS011;9917;51.256;7.152;2023-05-16T12:19:54;6.50;;;0.70;;
19543;SDS011;9917;51.256;7.152;2023-05-16T12:22:20;2.67;;;0.52;;
19543;SDS011;9917;51.256;7.152;2023-05-16T12:24:47;3.50;;;0.70;;
19543;SDS011;9917;51.256;7.152;2023-05-16T12:27:13;6.30;;;1.08;;
19543;SDS011;9917;51.256;7.152;2023-05-16T12:29:46;3.42;;;0.90;;
19543;SDS011;9917;51.256;7.152;2023-05-16T12:32:12;1.85;;;0.63;;
19543;SDS011;9917;51.256;7.152;2023-05-16T12:34:37;4.22;;;0.70;;
19543;SDS011;9917;51.256;7.152;2023-05-16T12:37:03;2.03;;;0.30;;
19543;SDS011;9917;51.256;7.152;2023-05-16T12:39:35;1.10;;;0.30;;
19543;SDS011;9917;51.256;7.152;2023-05-16T12:42:05;0.90;;;0.20;;
19543;SDS011;9917;51.256;7.152;2023-05-16T12:44:31;1.65;;;0.22;;
19543;SDS011;9917;51.256;7.152;2023-05-16T12:46:57;2.03;;;0.30;;
19543;SDS011;9917;51.256;7.152;2023-05-16T12:49:22;1.10;;;0.20;;
19543;SDS011;9917;51.256;7.152;2023-05-16T12:51:49;0.90;;;0.10;;
19543;SDS011;9917;51.256;7.152;2023-05-16T12:54:15;1.25;;;0.30;;
19543;SDS011;9917;51.256;7.152;2023-05-16T12:56:41;1.85;;;0.50;;
19543;SDS011;9917;51.256;7.152;2023-05-16T12:59:08;2.10;;;0.40;;
19543;SDS011;9917;51.256;7.152;2023-05-16T13:01:34;2.22;;;0.57;;
19543;SDS011;9917;51.256;7.152;2023-05-16T13:04:00;2.83;;;0.50;;
19543;SDS011;9917;51.256;7.152;2023-05-16T13:06:26;2.30;;;0.50;;
19543;SDS011;9917;51.256;7.152;2023-05-16T13:08:52;1.70;;;0.40;;
19543;SDS011;9917;51.256;7.152;2023-05-16T13:11:18;1.95;;;0.30;;
19543;SDS011;9917;51.256;7.152;2023-05-16T13:13:43;2.25;;;0.60;;
19543;SDS011;9917;51.256;7.152;2023-05-16T13:16:12;4.18;;;0.63;;
19543;SDS011;9917;51.256;7.152;2023-05-16T13:18:37;2.85;;;0.73;;
19543;SDS011;9917;51.256;7.152;2023-05-16T13:21:04;2.55;;;0.70;;
19543;SDS011;9917;51.256;7.152;2023-05-16T13:23:30;1.85;;;0.60;;
19543;SDS011;9917;51.256;7.152;2023-05-16T13:25:56;2.88;;;0.40;;
19543;SDS011;9917;51.256;7.152;2023-05-16T13:28:21;3.60;;;0.52;;
19543;SDS011;9917;51.256;7.152;2023-05-16T13:30:47;4.13;;;0.50;;
19543;SDS011;9917;51.256;7.152;2023-05-16T13:33:14;4.22;;;0.55;;
19543;SDS011;9917;51.256;7.152;2023-05-16T13:35:42;2.30;;;0.50;;
19543;SDS011;9917;51.256;7.152;2023-05-16T13:38:11;2.47;;;0.50;;
19543;SDS011;9917;51.256;7.152;2023-05-16T13:40:39;4.78;;;0.70;;
19543;SDS011;9917;51.256;7.152;2023-05-16T13:43:05;3.42;;;0.40;;
19543;SDS011;9917;51.256;7.152;2023-05-16T13:45:31;2.08;;;0.40;;
19543;SDS011;9917;51.256;7.152;2023-05-16T13:47:57;2.10;;;0.20;;
19543;SDS011;9917;51.256;7.152;2023-05-16T13:50:24;1.65;;;0.32;;
19543;SDS011;9917;51.256;7.152;2023-05-16T13:52:50;3.95;;;0.65;;
19543;SDS011;9917;51.256;7.152;2023-05-16T13:55:16;2.40;;;0.45;;
19543;SDS011;9917;51.256;7.152;2023-05-16T13:57:41;1.33;;;0.30;;
19543;SDS011;9917;51.256;7.152;2023-05-16T14:00:07;2.47;;;0.30;;
19543;SDS011;9917;51.256;7.152;2023-05-16T14:02:34;1.73;;;0.35;;
19543;SDS011;9917;51.256;7.152;2023-05-16T14:05:02;2.63;;;0.38;;
19543;SDS011;9917;51.256;7.152;2023-05-16T14:07:30;2.38;;;0.80;;
19543;SDS011;9917;51.256;7.152;2023-05-16T14:09:55;3.50;;;0.80;;
19543;SDS011;9917;51.256;7.152;2023-05-16T14:12:21;4.13;;;0.65;;
19543;SDS011;9917;51.256;7.152;2023-05-16T14:14:47;3.50;;;0.60;;
19543;SDS011;9917;51.256;7.152;2023-05-16T14:17:13;2.60;;;0.50;;
19543;SDS011;9917;51.256;7.152;2023-05-16T14:19:38;1.98;;;0.40;;
19543;SDS011;9917;51.256;7.152;2023-05-16T14:22:04;2.20;;;0.50;;
19543;SDS011;9917;51.256;7.152;2023-05-16T14:24:31;2.28;;;0.50;;
19543;SDS011;9917;51.256;7.152;2023-05-16T14:26:58;2.60;;;0.55;;
19543;SDS011;9917;51.256;7.152;2023-05-16T14:29:24;1.83;;;0.38;;
19543;SDS011;9917;51.256;7.152;2023-05-16T14:31:50;2.35;;;0.30;;
19543;SDS011;9917;51.256;7.152;2023-05-16T14:34:15;4.47;;;0.60;;
19543;SDS011;9917;51.256;7.152;2023-05-16T14:36:41;3.30;;;0.93;;
19543;SDS011;9917;51.256;7.152;2023-05-16T14:39:07;3.33;;;0.50;;
19543;SDS011;9917;51.256;7.152;2023-05-16T14:41:34;2.20;;;0.52;;
19543;SDS011;9917;51.256;7.152;2023-05-16T14:44:00;2.63;;;0.60;;
19543;SDS011;9917;51.256;7.152;2023-05-16T14:46:26;2.63;;;0.60;;
19543;SDS011;9917;51.256;7.152;2023-05-16T14:48:51;2.88;;;0.60;;
19543;SDS011;9917;51.256;7.152;2023-05-16T14:51:17;6.18;;;0.80;;
19543;SDS011;9917;51.256;7.152;2023-05-16T14:53:43;4.13;;;0.93;;
19543;SDS011;9917;51.256;7.152;2023-05-16T14:56:09;6.05;;;0.80;;
19543;SDS011;9917;51.256;7.152;2023-05-16T14:58:36;3.65;;;0.55;;
19543;SDS011;9917;51.256;7.152;2023-05-16T15:01:05;5.15;;;1.30;;